Duane, New York
Current Conditions -  °F | °C
As of 4:51 AM on Friday 24 Oct 2014 (Local Time) from KSLK Reporting Station
Overcast Overcast  
Wind Chill: 34°   Ceiling: 700
Heat Index: 39°   Visibility: 10mi
Dew Point: 37°   Wind: 7mph
Humidity: 93%   Direction: 350°N
Pressure: 29.85"   Gusts: NA
Location:  44.7347°N, 74.2672°W
Report Text: KSLK 240851Z AUTO 35006KT 10SM OVC007 04/03 A2985 RMK AO2 RAB02E13 SLP118 P0000 60000 T00390028 55001
Loading
Personal Weather Stations






























Interactive Weather Map
Tropical Storm Tracking
New forecast layout! Learn more

10-Day Weather Forecast

Advertisements
Track Severe Weather on mobile